Flight Track Log - Related Links

Times and Time Zones

All times are in EDT time to prevent confusion due to time zone crossing. See the N411PK flight status page for this flight to view local times or setup timezone preferences in your user account.

Time Position Orientation Groundspeed Altitude Reporting Facility
EDT Latitude Longitude Course Direction KTS MPH feet Rate Location/Type
Fri 02:36:33 PM 39.8142 -83.5050 95° East 177 204 3,500  Level Indianapolis Center
Fri 02:37:39 PM 39.8089 -83.4339 95° East 177 204 3,500  Level Indianapolis Center
Fri 02:38:40 PM 39.8094 -83.3686 89° East 175 201 3,500  Level Indianapolis Center
Fri 02:39:41 PM 39.8056 -83.3058 95° East 173 199 3,500  Level Indianapolis Center
Fri 02:40:42 PM 39.8014 -83.2456 95° East 171 197 3,500  Level Indianapolis Center
Fri 02:41:43 PM 39.7997 -83.1803 92° East 180 207 3,500  Level Indianapolis Center
Fri 02:42:44 PM 39.7983 -83.1122 91° East 174 200 3,500  Level Indianapolis Center
Fri 02:43:45 PM 39.7964 -83.0494 92° East 176 203 3,500  Level Indianapolis Center
Fri 02:44:45 PM 39.7922 -82.9867 95° East 176 203 3,500  Level Indianapolis Center
Fri 02:45:46 PM 39.7903 -82.9242 92° East 177 204 3,500  Level Indianapolis Center
Fri 02:46:47 PM 39.7881 -82.8614 93° East 176 203 3,500  Level Indianapolis Center
Fri 02:47:48 PM 39.7844 -82.7931 94° East 175 201 3,500  Level Indianapolis Center
Fri 02:48:55 PM 39.7806 -82.7250 94° East 176 203 3,500  Level Indianapolis Center
Fri 02:49:56 PM 39.7783 -82.6622 93° East 173 199 3,500  Level Indianapolis Center
Fri 02:50:57 PM 39.7764 -82.5942 92° East 175 201 3,500  Level Indianapolis Center
Fri 02:52:08 PM 39.7711 -82.5192 95° East 177 204 3,500  Level Indianapolis Center
Fri 02:52:59 PM 39.7700 -82.4689 92° East 174 200 3,500  Level Indianapolis Center
Fri 02:54:12 PM 39.7661 -82.3953 94° East 170 196 3,500  Level Indianapolis Center
Fri 02:55:14 PM 39.7614 -82.3336 96° East 170 196 3,500 242 Level Indianapolis Center
Fri 02:56:16 PM 39.7597 -82.2725 92° East 169 194 4,000 581 Climbing Indianapolis Center
Fri 02:57:18 PM 39.7572 -82.2192 93° East 152 175 4,700 581 Climbing Indianapolis Center
Fri 02:58:20 PM 39.7544 -82.1661 94° East 147 169 5,200 390 Climbing Indianapolis Center
Fri 02:59:21 PM 39.7531 -82.1100 92° East 152 175 5,500 146 Climbing Indianapolis Center
Fri 03:00:23 PM 39.7467 -82.0367 96° East 172 198 5,500  Level Indianapolis Center
Fri 03:01:25 PM 39.7450 -81.9717 92° East 177 204 5,500  Level Indianapolis Center
Fri 03:02:27 PM 39.7417 -81.9069 94° East 178 205 5,500  Level Indianapolis Center
Fri 03:03:29 PM 39.7386 -81.8450 94° East 171 197 5,500  Level Indianapolis Center
Fri 03:04:31 PM 39.7350 -81.7803 94° East 177 204 5,500  Level Indianapolis Center
Fri 03:05:33 PM 39.7311 -81.7183 95° East 172 198 5,500 -49 Level Indianapolis Center
Fri 03:06:34 PM 39.7281 -81.6536 93° East 177 204 5,400 -49 Descending Indianapolis Center
Fri 03:07:36 PM 39.7247 -81.5889 94° East 178 205 5,400  Level Indianapolis Center
Fri 03:08:38 PM 39.7217 -81.5242 93° East 178 205 5,400  Level Indianapolis Center
Fri 03:09:40 PM 39.7161 -81.4489 95° East 178 205 5,400  Level Indianapolis Center
Fri 03:10:42 PM 39.7139 -81.3897 93° East 173 199 5,400  Level Indianapolis Center
Fri 03:11:44 PM 39.7094 -81.3256 95° East 176 203 5,400  Level Indianapolis Center
Fri 03:12:46 PM 39.7067 -81.2619 93° East 177 204 5,400  Level Indianapolis Center
Fri 03:13:48 PM 39.7033 -81.1978 94° East 177 204 5,400  Level Indianapolis Center
Fri 03:14:49 PM 39.6983 -81.1350 96° East 177 204 5,400 49 Level Indianapolis Center
Fri 03:15:51 PM 39.6939 -81.0578 94° East 177 204 5,500 48 Climbing Indianapolis Center
Fri 03:16:53 PM 39.6900 -80.9947 95° East 176 203 5,500  Level Indianapolis Center
Fri 03:17:55 PM 39.6861 -80.9308 95° East 176 203 5,500 -34 Level Indianapolis Center
Fri 03:19:52 PM 39.6833 -80.8097 92° East 178 205 5,400  Descending Cleveland Center
Fri 03:20:52 PM 39.6814 -80.7475 92° East 178 205 5,500 100 Climbing Cleveland Center
Fri 03:21:52 PM 39.6753 -80.6828 97° East 178 205 5,600 50 Climbing Cleveland Center
Fri 03:22:52 PM 39.6731 -80.6236 93° East 178 205 5,600  Level Cleveland Center
Fri 03:23:52 PM 39.6689 -80.5614 95° East 178 205 5,600  Level Cleveland Center
Fri 03:25:00 PM 39.6631 -80.4980 95° East  Level FlightAware Approximate
Fri 03:32:00 PM 39.6356 -80.1063 95° East  Level FlightAware Approximate
Fri 03:33:00 PM 39.6315 -80.0504 95° East  Level FlightAware Approximate
Fri 03:34:00 PM 39.6274 -79.9945 95° East  Level FlightAware Approximate
Fri 03:35:00 PM 39.6233 -79.9386 95° East  Level FlightAware Approximate
Fri 03:36:00 PM 39.6192 -79.8827 95° East  Level FlightAware Approximate
Fri 03:37:00 PM 39.6151 -79.8267 95° East  Level FlightAware Approximate
Fri 03:38:00 PM 39.6109 -79.7708 96° East  Level FlightAware Approximate
Fri 03:39:00 PM 39.6067 -79.7150 96° East  Level FlightAware Approximate
Fri 03:39:59 PM 39.5956 -79.5539 96° East 170 196 5,600  Level Cleveland Center
Fri 03:40:00 PM 39.6025 -79.6591 96° East  Level FlightAware Approximate
Fri 03:40:24 PM 39.5933 -79.5353 99° East 170 196 5,600  Level Cleveland Center
Fri 03:41:00 PM 39.5982 -79.6032 96° East  Level FlightAware Approximate
Fri 03:41:24 PM 39.5886 -79.4678 95° East 170 196 5,500  Level Cleveland Center
Fri 03:42:00 PM 39.5939 -79.5473 96° East  Level FlightAware Approximate
Fri 03:42:25 PM 39.5858 -79.4061 93° East 174 200 5,500  Level Cleveland Center
Fri 03:43:00 PM 39.5896 -79.4915 96° East  Level FlightAware Approximate
Fri 03:43:25 PM 39.5811 -79.3442 96° East 175 201 5,500  Level Cleveland Center
Fri 03:44:00 PM 39.5853 -79.4356 96° East  Level FlightAware Approximate
Fri 03:44:20 PM 39.5761 -79.2850 96° East 174 200 5,500  Level Cleveland Center
Fri 03:45:00 PM 39.5809 -79.3798 96° East  Level FlightAware Approximate
Fri 03:45:27 PM 39.5711 -79.2150 95° East 173 199 5,500  Level Cleveland Center
Fri 03:46:27 PM 39.5661 -79.1533 96° East 173 199 5,500  Level Cleveland Center
Fri 03:47:28 PM 39.5633 -79.0886 93° East 176 203 5,500  Level Cleveland Center
Fri 03:48:29 PM 39.5564 -79.0294 99° East 174 200 5,500  Level Cleveland Center
Fri 03:49:29 PM 39.5511 -78.9625 96° East 172 198 5,500  Level Cleveland Center
Fri 03:50:30 PM 39.5483 -78.9033 93° East 170 196 5,500  Level Cleveland Center
Fri 03:51:30 PM 39.5411 -78.8469 99° East 170 196 5,500  Level Cleveland Center
Fri 03:52:31 PM 39.5381 -78.7822 93° East 173 199 5,500 -56 Level Cleveland Center
Fri 03:53:18 PM 39.5333 -78.7264 96° East 192 221 5,400 -56 Descending Washington Center
Fri 03:54:18 PM 39.5286 -78.6642 96° East 198 228 5,400  Level Washington Center
Fri 03:55:18 PM 39.5239 -78.6022 96° East 184 212 5,400 98 Level Washington Center
Fri 03:56:20 PM 39.5169 -78.5453 99° East 171 197 5,600 49 Climbing Washington Center
Fri 03:57:20 PM 39.5122 -78.4833 96° East 171 197 5,500 -50 Descending Washington Center
Fri 03:58:20 PM 39.5075 -78.4239 96° East 166 191 5,500 51 Level Washington Center
Fri 03:59:18 PM 39.5028 -78.3619 96° East 166 191 5,600  Climbing Washington Center
Fri 04:00:19 PM 39.4978 -78.2997 96° East 166 191 5,500 -50 Descending Washington Center
Fri 04:01:19 PM 39.4931 -78.2350 95° East 166 191 5,500  Level Washington Center
Fri 04:02:20 PM 39.4861 -78.1731 98° East 166 191 5,500  Level Washington Center
Fri 04:03:18 PM 39.4811 -78.1108 96° East 166 191 5,500  Level Washington Center
Fri 04:04:18 PM 39.4742 -78.0461 98° East 166 191 5,500  Level Washington Center
Fri 04:05:18 PM 39.4692 -77.9814 96° East 171 197 5,500  Level Washington Center
Fri 04:06:19 PM 39.4642 -77.9194 96° East 171 197 5,500 -145 Level Washington Center
Fri 04:08:03 PM 39.4500 -77.8167 100° East 172 198 5,100 -364 Descending Potomac TRACON
Fri 04:09:04 PM 39.4500 -77.7500 90° East 175 201 4,500 -545 Descending Potomac TRACON
Fri 04:10:04 PM 39.4500 -77.6833 90° East 178 205 4,000 -500 Descending Potomac TRACON
Fri 04:12:00 PM 39.4324 -77.5786 104° East  Level FlightAware Approximate
Fri 04:19:00 PM 39.4167 -77.3667 90° East  Level FlightAware Approximate
Fri 04:20:00 PM 39.4176 -77.3743 90° East  Level Estimated
Fri 04:21:00 PM 39.4167 -77.3667 90° East  Level FlightAware Approximate
Fri 04:22:00 PM 39.4176 -77.3743 90° East  Level Estimated
Fri 04:23:00 PM 39.4167 -77.3667 90° East  Level FlightAware Approximate
Fri 04:24:00 PM 39.4176 -77.3743 90° East  Level Estimated
Fri 04:25:00 PM 39.4167 -77.3667 90° East  Level FlightAware Approximate
Fri 04:26:00 PM 39.4176 -77.3743 90° East  Level Estimated
Fri 04:27:00 PM 39.4167 -77.3667 90° East  Level FlightAware Approximate
Fri 04:28:00 PM 39.4176 -77.3743 90° East  Level Estimated
Fri 04:29:00 PM 39.4167 -77.3667 90° East  Level FlightAware Approximate
Fri 04:30:00 PM 39.4176 -77.3743 90° East  Level Estimated
Fri 04:31:00 PM 39.4167 -77.3667 90° East  Level FlightAware Approximate
Fri 04:32:00 PM 39.4176 -77.3743 90° East  Level Estimated
Fri 04:33:00 PM 39.4167 -77.3667 90° East  Level FlightAware Approximate
Fri 04:34:00 PM 39.4176 -77.3743 90° East  Level Estimated
Fri 04:35:00 PM 39.4167 -77.3667 90° East  Level FlightAware Approximate

Login

Don't have an account? Register now (free) for customized features, flight alerts, and more!